Observations for LAMEZIA TERME, Italy (LICA)

LICA 201950Z 07003KT CAVOK 07/05 Q1026  
LICA 201850Z VRB02KT CAVOK 07/05 Q1025  
LICA 201750Z 24005KT CAVOK 10/06 Q1025  
LICA 201650Z 26006KT CAVOK 11/06 Q1024  
LICA 201550Z 26010KT CAVOK 12/06 Q1024  
LICA 201450Z 26009KT CAVOK 13/06 Q1024  
LICA 201350Z 27010KT 240V300 CAVOK 13/05 Q1024  
LICA 201250Z 26009KT CAVOK 14/06 Q1024  
LICA 201150Z 26009KT CAVOK 14/06 Q1024  
LICA 201050Z 23007KT 190V270 9999 FEW030 13/06 Q1024
LICA 200950Z 25008KT 9999 FEW030 13/05 Q1024
LICA 200850Z 24006KT 200V280 9999 SCT030 13/06 Q1024
LICA 200750Z VRB02KT 9999 SCT030 11/07 Q1024
LICA 200650Z 09003KT 9999 BKN030 06/04 Q1024
LICA 200550Z VRB02KT 8000 BKN020 04/03 Q1023
LICA 200350Z 09005KT 8000 BKN020 03/02 Q1023
LICA 200250Z 08006KT 8000 BKN020 03/03 Q1023
LICA 200150Z 08004KT 8000 BKN020 04/03 Q1023
LICA 200050Z 08005KT 8000 SCT020 03/03 Q1023
LICA 192350Z 09005KT 8000 BKN020 03/03 Q1023
LICA 192250Z 08004KT 8000 SCT020 04/03 Q1023
LICA 192150Z 09003KT 8000 SCT020 04/03 Q1023
LICA 192050Z 07004KT 9999 SCT020 06/04 Q1023
LICA 191950Z VRB03KT 9999 SCT020 06/04 Q1023